Bookmark and Share
Track history (hours):
 

Tole Mour (United States)

The largest working tall ship on the west coast of North America. Former callsign WUV7222.

Ship's website: http://www.tolemour.org/

More information available from US FCC via Universal Licensing System and Coast Guard Vessel Documentation Center.

Last reported at 2014-Apr-17 02:13 UTC. Time now 2014-Apr-21 15:08 UTC.
Position N 33°46' W 118°12'.

Type: Ship. MMSI: 366822140.

NotesDate/timePositionNaut miles runAvg speedWind from/ knotsBaromVisibWave heightAir tempDewpointWater temp
2014-Apr-17 02:13N 33°46' W 118°12'3 0.7
2014-Apr-16 21:32N 33°43' W 118°11'11 9.0
2014-Apr-16 20:18N 33°33' W 118°17'9 3.4
2014-Apr-16 17:31N 33°24' W 118°22'0 0.0
2014-Apr-16 15:16N 33°24' W 118°22'0 0.0
2014-Apr-16 12:22N 33°24' W 118°22'0 0.0
2014-Apr-16 11:28N 33°24' W 118°22'0 0.0
2014-Apr-16 10:22N 33°24' W 118°22'0 0.0
2014-Apr-16 09:28N 33°24' W 118°22'0 0.0
2014-Apr-16 08:25N 33°24' W 118°22'0 0.0
2014-Apr-16 07:31N 33°24' W 118°22'0 0.0
2014-Apr-16 06:31N 33°24' W 118°22'0 0.0
2014-Apr-16 05:31N 33°24' W 118°22'0 0.1
2014-Apr-16 04:28N 33°24' W 118°22'0 0.1
2014-Apr-16 03:31N 33°24' W 118°22'0 0.0
2014-Apr-16 02:28N 33°24' W 118°22'0 0.1
2014-Apr-16 01:31N 33°24' W 118°22'0 0.0
2014-Apr-16 00:33N 33°24' W 118°22'6 6.0
2014-Apr-15 23:33N 33°30' W 118°19'3 2.6
2014-Apr-15 22:34N 33°32' W 118°19'5 4.7
2014-Apr-15 21:30N 33°28' W 118°23'11 1.0
2014-Apr-15 09:34N 33°17' W 118°19'4 4.5
2014-Apr-15 08:34N 33°16' W 118°24'4 3.6
2014-Apr-15 07:34N 33°15' W 118°28'4 3.5
2014-Apr-15 06:34N 33°13' W 118°31'3 3.3
2014-Apr-15 05:33N 33°11' W 118°35'10 4.8
2014-Apr-15 03:34N 33°09' W 118°46'6 5.8
2014-Apr-15 02:34N 33°07' W 118°53'4 4.1
2014-Apr-15 01:34N 33°09' W 118°57'5 5.3
2014-Apr-15 00:31N 33°14' W 119°01'12 6.2
2014-Apr-14 22:34N 33°25' W 119°05'  
2014-Apr-12 05:24N 33°46' W 118°12'0 0.0
2014-Apr-12 04:12N 33°46' W 118°12'0 0.0
2014-Apr-12 03:33N 33°46' W 118°12'0 0.0
2014-Apr-12 02:27N 33°46' W 118°12'0 0.0
2014-Apr-12 01:33N 33°46' W 118°12'0 0.0
2014-Apr-12 00:33N 33°46' W 118°12'0 0.0
2014-Apr-11 23:33N 33°46' W 118°12'1 0.8
2014-Apr-11 22:31N 33°45' W 118°11'1 0.9
2014-Apr-11 21:33N 33°44' W 118°10'7 6.6
2014-Apr-11 20:33N 33°38' W 118°13'7 6.7
2014-Apr-11 19:33N 33°32' W 118°17'6 5.7
2014-Apr-11 18:33N 33°27' W 118°20'3 3.3
2014-Apr-11 17:32N 33°24' W 118°22'0 0.0
2014-Apr-11 16:32N 33°24' W 118°22'0 0.0
2014-Apr-11 15:32N 33°24' W 118°22'0 0.0
2014-Apr-11 14:32N 33°24' W 118°22'0 0.0
2014-Apr-11 13:32N 33°24' W 118°22'0 0.0
2014-Apr-11 12:29N 33°24' W 118°22'0 0.0
2014-Apr-11 11:32N 33°24' W 118°22'0 0.1
2014-Apr-11 10:32N 33°24' W 118°22'0 0.0
2014-Apr-11 09:32N 33°24' W 118°22'0 0.0
2014-Apr-11 08:32N 33°24' W 118°22'0 0.0
2014-Apr-11 07:32N 33°24' W 118°22'0 0.0
2014-Apr-11 06:32N 33°24' W 118°22'0 0.0
2014-Apr-11 05:32N 33°24' W 118°22'0 0.0
2014-Apr-11 04:32N 33°24' W 118°22'0 0.1
2014-Apr-11 03:32N 33°24' W 118°22'0 0.0
2014-Apr-11 02:32N 33°24' W 118°22'0 0.0
2014-Apr-11 01:32N 33°24' W 118°22'0 0.1
2014-Apr-11 00:32N 33°24' W 118°22'3 3.3
2014-Apr-10 23:33N 33°27' W 118°20'2 1.7
2014-Apr-10 22:33N 33°28' W 118°19'3 3.1
2014-Apr-10 21:33N 33°29' W 118°23'3 2.8
2014-Apr-10 20:33N 33°28' W 118°26'2 2.4
2014-Apr-10 19:33N 33°26' W 118°25'0 0.0
2014-Apr-10 18:21N 33°26' W 118°25'0 0.0
2014-Apr-10 17:33N 33°26' W 118°25'0 0.0
2014-Apr-10 16:33N 33°26' W 118°25'0 0.0
2014-Apr-10 15:09N 33°26' W 118°25'0 0.0
2014-Apr-10 13:33N 33°26' W 118°26'0 0.1
2014-Apr-10 12:33N 33°26' W 118°25'0 0.0
2014-Apr-10 11:33N 33°26' W 118°25'0 0.0
2014-Apr-10 10:24N 33°26' W 118°25'0 0.0
2014-Apr-10 09:33N 33°26' W 118°25'0 0.0
2014-Apr-10 08:30N 33°26' W 118°25'0 0.0
2014-Apr-10 07:33N 33°26' W 118°25'0 0.0
2014-Apr-10 06:27N 33°26' W 118°25'0 0.0
2014-Apr-10 05:30N 33°26' W 118°25'0 0.0
2014-Apr-10 04:33N 33°26' W 118°25'0 0.0
2014-Apr-10 03:30N 33°26' W 118°25'0 0.0
2014-Apr-10 02:30N 33°26' W 118°25'0 0.0
2014-Apr-10 01:33N 33°26' W 118°25'0 0.0
2014-Apr-10 00:33N 33°26' W 118°25'0 0.0
2014-Apr-09 23:33N 33°26' W 118°25'0 0.2
2014-Apr-09 22:33N 33°26' W 118°26'3 3.4
2014-Apr-09 21:33N 33°29' W 118°24'4 3.3
2014-Apr-09 20:26N 33°32' W 118°22'3 3.1
2014-Apr-09 19:33N 33°35' W 118°21'3 2.9
2014-Apr-09 18:33N 33°38' W 118°21'8 7.6
2014-Apr-09 17:33N 33°43' W 118°14'3 3.4
2014-Apr-09 16:33N 33°46' W 118°12'0 0.0
2014-Apr-09 15:30N 33°46' W 118°12'0 0.0
2014-Apr-09 14:33N 33°46' W 118°12'0 0.0
2014-Apr-09 13:33N 33°46' W 118°12'0 0.0
2014-Apr-09 12:33N 33°46' W 118°12'0 0.0
2014-Apr-09 11:33N 33°46' W 118°12'0 0.0
2014-Apr-09 10:30N 33°46' W 118°12'0 0.0
2014-Apr-09 07:06N 33°46' W 118°12'0 0.0
2014-Apr-08 17:22N 33°46' W 118°12'0 0.0
2014-Apr-08 16:06N 33°46' W 118°12'0 0.0
2014-Apr-08 15:28N 33°46' W 118°12'0 0.0
2014-Apr-08 11:15N 33°46' W 118°12'0 0.0
2014-Apr-08 10:33N 33°46' W 118°12'0 0.0
2014-Apr-08 09:33N 33°46' W 118°12'0 0.0
2014-Apr-08 08:33N 33°46' W 118°12'0 0.0
2014-Apr-08 07:33N 33°46' W 118°12'0 0.0
2014-Apr-08 01:33N 33°46' W 118°12'0 0.0
2014-Apr-08 00:33N 33°46' W 118°12'0 0.0
2014-Apr-07 23:33N 33°46' W 118°12'0 0.0
2014-Apr-07 22:33N 33°46' W 118°12'0 0.0
2014-Apr-07 21:33N 33°46' W 118°12'0 0.0
2014-Apr-07 20:33N 33°46' W 118°12'0 0.0
2014-Apr-07 19:33N 33°46' W 118°12'0 0.0
2014-Apr-07 17:33N 33°46' W 118°12'0 0.0
2014-Apr-07 16:33N 33°46' W 118°12'0 0.0
2014-Apr-07 15:33N 33°46' W 118°12'0 0.0
2014-Apr-07 14:33N 33°46' W 118°12'0 0.0
2014-Apr-07 13:33N 33°46' W 118°12'0 0.0
2014-Apr-07 12:30N 33°46' W 118°12'0 0.0
2014-Apr-07 11:33N 33°46' W 118°12'0 0.0
2014-Apr-07 10:33N 33°46' W 118°12'0 0.0
2014-Apr-07 09:33N 33°46' W 118°12'0 0.0
2014-Apr-07 08:33N 33°46' W 118°12'0 0.0
2014-Apr-07 07:33N 33°46' W 118°12'0 0.0
2014-Apr-07 06:33N 33°46' W 118°12'0 0.0
2014-Apr-07 05:33N 33°46' W 118°12'0 0.0
2014-Apr-07 04:33N 33°46' W 118°12'0 0.0
2014-Apr-07 02:27N 33°46' W 118°12'  

Dump ship's entire track history

sailing weather and tide predictions

Tole Mour — WDA5625 — position and weather